createdAt,value
2018-06-08T00:00:46.488Z,17.60
2018-06-08T00:03:15.445Z,18.63
2018-06-08T00:05:44.232Z,15.13
2018-06-08T00:08:13.157Z,19.73
2018-06-08T00:10:42.181Z,14.07
2018-06-08T00:13:11.079Z,19.53
2018-06-08T00:15:39.736Z,21.87
2018-06-08T00:18:08.290Z,21.77
2018-06-08T00:20:37.140Z,24.50
2018-06-08T00:23:05.758Z,24.73
2018-06-08T00:25:37.458Z,25.43
2018-06-08T00:28:06.176Z,28.10
2018-06-08T00:30:35.282Z,21.07
2018-06-08T00:33:04.097Z,26.97
2018-06-08T00:35:33.029Z,22.37
2018-06-08T00:38:01.911Z,27.70
2018-06-08T00:40:30.631Z,18.87
2018-06-08T00:42:59.590Z,17.87
2018-06-08T00:45:30.906Z,22.73
2018-06-08T00:47:59.649Z,18.10
2018-06-08T00:50:28.537Z,20.20
2018-06-08T00:52:58.321Z,29.33
2018-06-08T00:55:27.128Z,17.23
2018-06-08T00:57:57.088Z,25.63
2018-06-08T01:00:25.738Z,18.93
2018-06-08T01:02:54.398Z,18.73
2018-06-08T01:05:23.036Z,18.33
2018-06-08T01:07:51.704Z,19.87
2018-06-08T01:10:20.381Z,16.70
2018-06-08T01:12:48.959Z,29.57
2018-06-08T01:15:17.699Z,22.67
2018-06-08T01:17:46.445Z,17.77
2018-06-08T01:20:15.642Z,19.27
2018-06-08T01:22:45.205Z,18.23
2018-06-08T01:25:13.845Z,18.53
2018-06-08T01:27:42.521Z,16.03
2018-06-08T01:30:11.100Z,17.67
2018-06-08T01:32:39.718Z,22.87
2018-06-08T01:35:08.014Z,19.73
2018-06-08T01:37:36.569Z,31.93
2018-06-08T01:40:04.995Z,18.27
2018-06-08T01:42:33.557Z,19.57
2018-06-08T01:45:02.235Z,19.77
2018-06-08T01:47:30.886Z,20.03
2018-06-08T01:49:59.579Z,19.17
2018-06-08T01:52:28.284Z,21.17
2018-06-08T01:54:56.992Z,19.60
2018-06-08T01:57:25.711Z,22.47
2018-06-08T01:59:54.441Z,23.37
2018-06-08T02:02:23.007Z,23.83
2018-06-08T02:04:51.198Z,24.60
2018-06-08T02:07:19.835Z,19.77
2018-06-08T02:09:48.412Z,21.50
2018-06-08T02:12:17.170Z,50.33
2018-06-08T02:14:45.800Z,24.47
2018-06-08T02:17:14.486Z,25.57
2018-06-08T02:19:43.179Z,23.70
2018-06-08T02:22:11.580Z,21.53
2018-06-08T02:24:40.295Z,28.20
2018-06-08T02:27:08.972Z,23.17
2018-06-08T02:29:37.555Z,27.80
2018-06-08T02:32:06.100Z,31.10
2018-06-08T02:34:34.693Z,22.67
2018-06-08T02:37:03.278Z,45.50
2018-06-08T02:39:31.990Z,26.17
2018-06-08T02:42:00.622Z,23.37
2018-06-08T02:44:29.352Z,24.73
2018-06-08T02:46:57.895Z,22.67
2018-06-08T02:49:26.635Z,22.20
2018-06-08T02:51:55.360Z,26.27
2018-06-08T02:54:24.018Z,23.13
2018-06-08T02:56:52.586Z,26.17
2018-06-08T02:59:21.134Z,23.07
2018-06-08T03:01:49.808Z,28.67
2018-06-08T03:04:18.325Z,24.17
2018-06-08T03:06:46.959Z,28.57
2018-06-08T03:09:15.349Z,35.17
2018-06-08T03:11:43.992Z,27.77
2018-06-08T03:14:12.644Z,27.70
2018-06-08T03:16:41.350Z,34.83
2018-06-08T03:19:09.986Z,24.70
2018-06-08T03:21:38.671Z,30.97
2018-06-08T03:24:07.447Z,26.37
2018-06-08T03:26:36.141Z,28.37
2018-06-08T03:29:04.828Z,30.63
2018-06-08T03:31:33.386Z,27.83
2018-06-08T03:34:01.966Z,27.33
2018-06-08T03:36:30.293Z,31.40
2018-06-08T03:38:58.901Z,27.07
2018-06-08T03:41:27.582Z,32.73
2018-06-08T03:43:56.200Z,29.07
2018-06-08T03:46:24.539Z,34.03
2018-06-08T03:48:53.131Z,30.53
2018-06-08T03:51:21.974Z,30.07
2018-06-08T03:53:50.525Z,33.90
2018-06-08T03:56:18.763Z,31.87
2018-06-08T03:58:47.278Z,34.07
2018-06-08T04:01:15.959Z,32.77
2018-06-08T04:03:44.268Z,32.27
2018-06-08T04:06:12.962Z,42.10
2018-06-08T04:08:41.610Z,34.43
2018-06-08T04:11:09.857Z,32.83
2018-06-08T04:13:38.504Z,32.67
2018-06-08T04:16:07.191Z,30.47
2018-06-08T04:18:35.836Z,28.73
2018-06-08T04:21:04.633Z,65.37
2018-06-08T04:23:33.299Z,29.77
2018-06-08T04:26:01.578Z,38.23
2018-06-08T04:28:29.850Z,30.37
2018-06-08T04:30:58.581Z,36.67
2018-06-08T04:33:27.307Z,31.53
2018-06-08T04:35:55.847Z,34.47
2018-06-08T04:38:24.488Z,37.27
2018-06-08T04:40:53.197Z,32.17
2018-06-08T04:43:21.991Z,29.93
2018-06-08T04:45:50.748Z,34.00
2018-06-08T04:48:19.098Z,30.37
2018-06-08T04:50:47.869Z,34.30
2018-06-08T04:53:16.581Z,30.57
2018-06-08T04:55:45.320Z,31.47
2018-06-08T04:58:14.084Z,37.50
2018-06-08T05:00:42.724Z,44.90
2018-06-08T05:03:11.424Z,43.03
2018-06-08T05:05:40.067Z,58.70
2018-06-08T05:08:08.825Z,34.10
2018-06-08T05:10:37.518Z,56.30
2018-06-08T05:13:06.255Z,65.87
2018-06-08T05:15:35.076Z,45.40
2018-06-08T05:18:03.830Z,39.57
2018-06-08T05:20:32.555Z,62.73
2018-06-08T05:23:01.272Z,43.83
2018-06-08T05:25:29.964Z,40.07
2018-06-08T05:27:58.629Z,43.77
2018-06-08T05:30:27.550Z,45.57
2018-06-08T05:32:56.296Z,61.90
2018-06-08T05:35:24.991Z,48.87
2018-06-08T05:37:53.688Z,44.77
2018-06-08T05:40:22.364Z,65.00
2018-06-08T05:42:51.110Z,63.47
2018-06-08T05:45:19.840Z,52.57
2018-06-08T05:47:48.504Z,82.57
2018-06-08T05:50:17.184Z,59.53
2018-06-08T05:52:45.886Z,59.07
2018-06-08T05:55:14.703Z,45.70
2018-06-08T05:57:44.354Z,50.53
2018-06-08T06:00:13.097Z,49.23
2018-06-08T06:02:41.799Z,53.00
2018-06-08T06:05:10.475Z,60.63
2018-06-08T06:07:39.212Z,65.10
2018-06-08T06:10:07.919Z,39.43
2018-06-08T06:12:36.567Z,40.07
2018-06-08T06:15:05.267Z,43.83
2018-06-08T06:17:34.043Z,51.97
2018-06-08T06:20:02.689Z,37.67
2018-06-08T06:22:31.303Z,56.03
2018-06-08T06:24:59.968Z,38.03
2018-06-08T06:27:29.682Z,37.67
2018-06-08T06:29:58.403Z,47.43
2018-06-08T06:32:27.122Z,49.77
2018-06-08T06:34:55.754Z,41.90
2018-06-08T06:37:24.603Z,45.73
2018-06-08T06:39:53.187Z,58.13
2018-06-08T06:42:21.417Z,47.93
2018-06-08T06:44:50.787Z,35.63
2018-06-08T06:47:20.609Z,41.03
2018-06-08T06:49:49.276Z,49.13
2018-06-08T06:52:17.912Z,35.43
2018-06-08T06:54:46.611Z,46.07
2018-06-08T06:57:15.989Z,50.40
2018-06-08T06:59:44.715Z,56.40
2018-06-08T07:02:12.975Z,37.40
2018-06-08T07:04:41.636Z,38.33
2018-06-08T07:07:10.395Z,45.43
2018-06-08T07:09:39.096Z,40.90
2018-06-08T07:12:07.790Z,31.90
2018-06-08T07:14:37.700Z,34.00
2018-06-08T07:17:06.071Z,54.23
2018-06-08T07:19:34.868Z,36.90
2018-06-08T07:22:03.534Z,44.80
2018-06-08T07:24:32.327Z,44.50
2018-06-08T07:27:03.102Z,36.60
2018-06-08T07:29:31.644Z,44.83
2018-06-08T07:32:00.499Z,40.57
2018-06-08T07:34:29.165Z,35.40
2018-06-08T07:36:59.046Z,45.67
2018-06-08T07:39:27.645Z,43.13
2018-06-08T07:41:56.413Z,47.50
2018-06-08T07:44:24.993Z,33.07
2018-06-08T07:46:53.752Z,37.80
2018-06-08T07:49:22.442Z,32.60
2018-06-08T07:51:51.198Z,42.00
2018-06-08T07:54:19.872Z,33.77
2018-06-08T07:56:48.713Z,35.83
2018-06-08T07:59:17.410Z,35.73
2018-06-08T08:01:46.097Z,40.43
2018-06-08T08:04:14.666Z,37.97
2018-06-08T08:06:43.336Z,42.07
2018-06-08T08:09:11.969Z,32.43
2018-06-08T08:11:40.605Z,38.60
2018-06-08T08:14:09.265Z,42.47
2018-06-08T08:16:37.958Z,28.87
2018-06-08T08:19:08.722Z,49.83
2018-06-08T08:21:37.448Z,35.43
2018-06-08T08:24:05.826Z,31.70
2018-06-08T08:26:34.475Z,32.03
2018-06-08T08:29:11.287Z,39.37
2018-06-08T08:31:39.937Z,35.27
2018-06-08T08:34:08.623Z,45.93
2018-06-08T08:36:37.201Z,43.60
2018-06-08T08:39:09.852Z,35.90
2018-06-08T08:41:38.476Z,36.27
2018-06-08T08:44:07.193Z,54.57
2018-06-08T08:46:35.953Z,59.13
2018-06-08T08:49:08.857Z,44.50
2018-06-08T08:51:37.149Z,31.03
2018-06-08T08:54:05.484Z,31.80
2018-06-08T08:56:34.192Z,42.57
2018-06-08T08:59:04.066Z,46.60
2018-06-08T09:01:32.752Z,29.27
2018-06-08T09:04:01.407Z,43.13
2018-06-08T09:06:29.995Z,48.57
2018-06-08T09:08:58.851Z,38.13
2018-06-08T09:11:27.478Z,35.40
2018-06-08T09:13:56.230Z,59.60
2018-06-08T09:16:24.888Z,38.17
2018-06-08T09:18:53.296Z,41.20
2018-06-08T09:21:22.038Z,37.27
2018-06-08T09:23:50.697Z,38.00
2018-06-08T09:26:19.468Z,56.07
2018-06-08T09:28:48.335Z,40.43
2018-06-08T09:31:17.069Z,48.17
2018-06-08T09:33:45.735Z,42.47
2018-06-08T09:36:14.292Z,49.50
2018-06-08T09:38:46.656Z,46.40
2018-06-08T09:41:15.310Z,53.67
2018-06-08T09:43:43.675Z,38.27
2018-06-08T09:46:12.477Z,43.53
2018-06-08T09:48:43.210Z,44.17
2018-06-08T09:51:11.650Z,57.43
2018-06-08T09:53:40.649Z,48.10
2018-06-08T09:56:09.368Z,42.47
2018-06-08T09:58:41.291Z,47.43
2018-06-08T10:01:09.959Z,43.37
2018-06-08T10:03:38.676Z,38.33
2018-06-08T10:06:07.311Z,52.10
2018-06-08T10:08:38.130Z,40.83
2018-06-08T10:11:07.621Z,49.20
2018-06-08T10:13:36.009Z,54.70
2018-06-08T10:16:04.609Z,47.77
2018-06-08T10:18:38.186Z,41.30
2018-06-08T10:21:06.941Z,53.57
2018-06-08T10:23:35.646Z,66.00
2018-06-08T10:26:04.297Z,48.20
2018-06-08T10:28:32.966Z,43.23
2018-06-08T10:31:01.653Z,52.20
2018-06-08T10:33:30.271Z,41.97
2018-06-08T10:35:58.920Z,130.17
2018-06-08T10:38:27.540Z,47.93
2018-06-08T10:40:56.266Z,44.60
2018-06-08T10:43:25.032Z,52.40
2018-06-08T10:45:53.407Z,40.67
2018-06-08T10:48:22.093Z,49.97
2018-06-08T10:50:51.903Z,45.03
2018-06-08T10:53:20.525Z,42.73
2018-06-08T10:55:49.254Z,52.83
2018-06-08T10:58:17.961Z,49.53
2018-06-08T11:00:49.759Z,77.10
2018-06-08T11:03:18.375Z,57.57
2018-06-08T11:05:47.131Z,54.70
2018-06-08T11:08:15.872Z,50.73
2018-06-08T11:10:58.271Z,48.90
2018-06-08T11:13:26.645Z,76.77
2018-06-08T11:15:55.275Z,77.00
2018-06-08T11:18:24.041Z,63.60
2018-06-08T11:20:53.770Z,52.90
2018-06-08T11:23:22.537Z,54.90
2018-06-08T11:25:51.299Z,86.97
2018-06-08T11:28:19.940Z,81.90
2018-06-08T11:30:48.740Z,56.53
2018-06-08T11:33:17.415Z,70.83
2018-06-08T11:35:45.993Z,74.53
2018-06-08T11:38:14.602Z,85.93
2018-06-08T11:40:43.315Z,76.00
2018-06-08T11:43:11.978Z,76.13
2018-06-08T11:45:40.714Z,77.37
2018-06-08T11:48:09.353Z,70.40
2018-06-08T11:50:39.027Z,73.33
2018-06-08T11:53:07.786Z,59.87
2018-06-08T11:55:36.481Z,59.50
2018-06-08T11:58:05.275Z,58.87
2018-06-08T12:00:34.079Z,80.67
2018-06-08T12:03:02.751Z,69.30
2018-06-08T12:05:31.562Z,66.43
2018-06-08T12:08:00.276Z,72.13
2018-06-08T12:10:29.051Z,73.13
2018-06-08T12:12:57.693Z,58.73
2018-06-08T12:15:26.426Z,64.43
2018-06-08T12:17:55.050Z,63.97
2018-06-08T12:20:23.769Z,76.93
2018-06-08T12:22:52.420Z,61.40
2018-06-08T12:25:21.098Z,68.07
2018-06-08T12:27:49.714Z,71.90
2018-06-08T12:30:18.391Z,65.77
2018-06-08T12:32:47.000Z,90.97
2018-06-08T12:35:15.738Z,69.23
2018-06-08T12:37:44.376Z,82.60
2018-06-08T12:40:12.802Z,75.03
2018-06-08T12:42:41.455Z,88.73
2018-06-08T12:45:10.265Z,82.50
2018-06-08T12:47:38.924Z,94.67
2018-06-08T12:50:11.057Z,90.33
2018-06-08T12:52:39.703Z,104.37
2018-06-08T12:55:08.432Z,77.77
2018-06-08T12:57:37.169Z,104.30
2018-06-08T13:00:06.001Z,81.77
2018-06-08T13:02:35.690Z,86.00
2018-06-08T13:05:04.494Z,65.40
2018-06-08T13:07:33.191Z,74.63
2018-06-08T13:10:01.531Z,77.70
2018-06-08T13:12:35.435Z,70.23
2018-06-08T13:15:04.115Z,72.27
2018-06-08T13:17:32.866Z,56.77
2018-06-08T13:20:01.679Z,73.47
2018-06-08T13:22:30.388Z,81.83
2018-06-08T13:24:59.189Z,64.90
2018-06-08T13:27:27.775Z,64.80
2018-06-08T13:29:56.518Z,76.07
2018-06-08T13:32:27.334Z,91.20
2018-06-08T13:34:56.139Z,74.50
2018-06-08T13:37:24.927Z,70.17
2018-06-08T13:39:53.647Z,71.87
2018-06-08T13:42:22.343Z,63.90
2018-06-08T13:44:50.969Z,65.37
2018-06-08T13:47:19.590Z,54.33
2018-06-08T13:49:48.263Z,65.60
2018-06-08T13:52:20.436Z,47.90
2018-06-08T13:54:49.194Z,52.37
2018-06-08T13:57:17.847Z,48.00
2018-06-08T13:59:46.499Z,34.10
2018-06-08T14:02:15.522Z,38.50
2018-06-08T14:04:43.925Z,50.90
2018-06-08T14:07:13.693Z,41.13
2018-06-08T14:09:42.133Z,49.17
2018-06-08T14:12:14.171Z,38.40
2018-06-08T14:14:42.809Z,35.97
2018-06-08T14:17:11.385Z,50.00
2018-06-08T14:19:40.124Z,44.40
2018-06-08T14:22:08.925Z,39.53
2018-06-08T14:24:37.725Z,42.37
2018-06-08T14:27:06.468Z,38.70
2018-06-08T14:29:35.089Z,34.40
2018-06-08T14:32:03.893Z,36.40
2018-06-08T14:34:32.520Z,30.60
2018-06-08T14:37:01.221Z,35.97
2018-06-08T14:39:29.850Z,31.33
2018-06-08T14:41:58.594Z,33.47
2018-06-08T14:44:27.226Z,36.57
2018-06-08T14:46:55.914Z,38.27
2018-06-08T14:49:24.526Z,34.70
2018-06-08T14:51:53.543Z,35.40
2018-06-08T14:54:22.223Z,39.90
2018-06-08T14:56:50.879Z,32.77
2018-06-08T14:59:19.550Z,42.50
2018-06-08T15:01:49.341Z,43.77
2018-06-08T15:04:18.020Z,35.17
2018-06-08T15:06:46.674Z,41.80
2018-06-08T15:09:15.395Z,35.73
2018-06-08T15:11:45.071Z,57.33
2018-06-08T15:14:14.664Z,39.33
2018-06-08T15:16:43.343Z,38.07
2018-06-08T15:19:11.980Z,43.70
2018-06-08T15:21:40.671Z,32.40
2018-06-08T15:24:09.404Z,33.23
2018-06-08T15:26:38.103Z,38.63
2018-06-08T15:29:06.793Z,43.83
2018-06-08T15:31:35.509Z,38.87
2018-06-08T15:34:04.341Z,29.47
2018-06-08T15:36:33.071Z,38.20
2018-06-08T15:39:01.809Z,37.40
2018-06-08T15:41:30.505Z,32.47
2018-06-08T15:43:59.212Z,31.93
2018-06-08T15:46:27.825Z,22.90
2018-06-08T15:48:56.515Z,33.53
2018-06-08T15:51:25.262Z,29.83
2018-06-08T15:53:54.019Z,23.63
2018-06-08T15:56:22.666Z,22.40
2018-06-08T15:58:51.299Z,53.33
2018-06-08T16:01:19.955Z,27.17
2018-06-08T16:03:48.571Z,40.47
2018-06-08T16:06:17.367Z,28.20
2018-06-08T16:08:46.076Z,39.03
2018-06-08T16:11:14.722Z,31.60
2018-06-08T16:13:44.537Z,24.43
2018-06-08T16:16:13.284Z,22.50
2018-06-08T16:18:41.950Z,20.67
2018-06-08T16:21:10.547Z,21.97
2018-06-08T16:23:38.901Z,21.10
2018-06-08T16:26:07.668Z,25.33
2018-06-08T16:28:36.461Z,28.07
2018-06-08T16:31:05.148Z,32.10
2018-06-08T16:33:34.717Z,26.57
2018-06-08T16:36:03.370Z,24.43
2018-06-08T16:38:31.973Z,23.10
2018-06-08T16:41:00.798Z,27.20
2018-06-08T16:43:29.469Z,23.70
2018-06-08T16:45:58.299Z,27.20
2018-06-08T16:48:26.923Z,18.70
2018-06-08T16:50:55.673Z,24.70
2018-06-08T16:53:24.495Z,19.40
2018-06-08T16:55:53.239Z,25.70
2018-06-08T16:58:21.875Z,24.17
2018-06-08T17:00:50.643Z,22.10
2018-06-08T17:03:19.260Z,23.57
2018-06-08T17:05:47.896Z,24.73
2018-06-08T17:08:16.235Z,24.80
2018-06-08T17:10:44.866Z,32.60
2018-06-08T17:13:13.599Z,18.83
2018-06-08T17:15:42.366Z,27.40
2018-06-08T17:18:11.094Z,25.70
2018-06-08T17:20:39.666Z,23.83
2018-06-08T17:23:08.458Z,20.60
2018-06-08T17:25:37.221Z,19.60
2018-06-08T17:28:05.950Z,23.70
2018-06-08T17:30:34.301Z,31.97
2018-06-08T17:33:03.043Z,23.20
2018-06-08T17:35:31.672Z,28.70
2018-06-08T17:38:00.422Z,32.30
2018-06-08T17:40:29.090Z,23.77
2018-06-08T17:42:57.751Z,59.33
2018-06-08T17:45:26.105Z,23.20
2018-06-08T17:47:54.786Z,36.20
2018-06-08T17:50:23.468Z,27.40
2018-06-08T17:52:52.258Z,26.27
2018-06-08T17:55:21.079Z,30.83
2018-06-08T17:57:49.831Z,43.43
2018-06-08T18:00:18.465Z,24.93
2018-06-08T18:02:47.240Z,28.57
2018-06-08T18:05:15.919Z,29.90
2018-06-08T18:07:44.600Z,28.53
2018-06-08T18:10:13.271Z,34.00
2018-06-08T18:12:41.922Z,27.50
2018-06-08T18:15:10.644Z,24.17
2018-06-08T18:17:39.978Z,30.10
2018-06-08T18:20:08.689Z,27.57
2018-06-08T18:22:37.306Z,40.47
2018-06-08T18:25:05.685Z,27.13
2018-06-08T18:27:33.965Z,31.27
2018-06-08T18:30:02.359Z,37.30
2018-06-08T18:32:31.075Z,38.13
2018-06-08T18:34:59.807Z,36.73
2018-06-08T18:37:28.638Z,35.03
2018-06-08T18:39:58.308Z,30.43
2018-06-08T18:42:27.035Z,29.57
2018-06-08T18:44:55.707Z,27.20
2018-06-08T18:47:24.412Z,26.17
2018-06-08T18:49:53.182Z,34.53
2018-06-08T18:52:21.814Z,60.80
2018-06-08T18:54:50.609Z,35.70
2018-06-08T18:57:19.270Z,32.33
2018-06-08T18:59:48.007Z,35.60
2018-06-08T19:02:16.706Z,34.87
2018-06-08T19:04:45.377Z,35.87
2018-06-08T19:07:14.040Z,35.83
2018-06-08T19:09:42.785Z,44.43
2018-06-08T19:12:12.316Z,41.53
2018-06-08T19:14:41.103Z,40.50
2018-06-08T19:17:09.791Z,46.80
2018-06-08T19:19:38.518Z,43.73
2018-06-08T19:22:07.317Z,34.90
2018-06-08T19:24:35.994Z,45.77
2018-06-08T19:27:04.712Z,41.13
2018-06-08T19:29:33.331Z,42.47
2018-06-08T19:32:01.922Z,38.90
2018-06-08T19:34:30.567Z,50.80
2018-06-08T19:36:59.265Z,44.37
2018-06-08T19:39:27.965Z,57.53
2018-06-08T19:41:56.330Z,49.30
2018-06-08T19:44:25.129Z,56.17
2018-06-08T19:46:53.763Z,45.30
2018-06-08T19:49:23.360Z,44.63
2018-06-08T19:51:52.086Z,55.00
2018-06-08T19:54:20.750Z,50.70
2018-06-08T19:56:49.536Z,63.30
2018-06-08T19:59:18.260Z,63.67
2018-06-08T20:01:46.683Z,57.10
2018-06-08T20:04:15.380Z,63.80
2018-06-08T20:06:44.077Z,60.50
2018-06-08T20:09:12.711Z,78.53
2018-06-08T20:11:41.395Z,71.07
2018-06-08T20:14:10.058Z,65.80
2018-06-08T20:16:38.737Z,99.03
2018-06-08T20:19:07.497Z,77.43
2018-06-08T20:21:36.128Z,65.80
2018-06-08T20:24:04.765Z,62.50
2018-06-08T20:26:33.435Z,60.87
2018-06-08T20:29:02.108Z,75.67
2018-06-08T20:31:30.820Z,61.50
2018-06-08T20:33:59.387Z,63.27
2018-06-08T20:36:28.154Z,74.00
2018-06-08T20:38:56.834Z,59.30
2018-06-08T20:41:25.427Z,72.57
2018-06-08T20:43:54.160Z,65.83
2018-06-08T20:46:22.693Z,70.87
2018-06-08T20:48:51.430Z,58.00
2018-06-08T20:51:19.749Z,72.67
2018-06-08T20:53:48.486Z,56.63
2018-06-08T20:56:17.156Z,58.07
2018-06-08T20:58:45.863Z,57.33
2018-06-08T21:01:14.585Z,47.77
2018-06-08T21:03:43.292Z,50.73
2018-06-08T21:06:11.916Z,58.53
2018-06-08T21:08:40.346Z,58.87
2018-06-08T21:11:09.109Z,68.93
2018-06-08T21:13:37.753Z,72.43
2018-06-08T21:16:06.501Z,57.40
2018-06-08T21:18:35.126Z,77.17
2018-06-08T21:21:03.660Z,64.23
2018-06-08T21:23:32.346Z,74.60
2018-06-08T21:26:01.000Z,67.90
2018-06-08T21:28:29.692Z,63.83
2018-06-08T21:30:58.428Z,64.93
2018-06-08T21:33:27.096Z,63.10
2018-06-08T21:35:55.744Z,61.97
2018-06-08T21:38:24.343Z,59.00
2018-06-08T21:40:52.888Z,59.47
2018-06-08T21:43:21.630Z,57.37
2018-06-08T21:45:50.286Z,55.63
2018-06-08T21:48:19.719Z,58.70
2018-06-08T21:50:48.399Z,55.13
2018-06-08T21:53:17.165Z,53.10
2018-06-08T21:55:45.744Z,55.27
2018-06-08T21:58:14.383Z,55.07
2018-06-08T22:00:43.106Z,57.37
2018-06-08T22:03:11.828Z,55.73
2018-06-08T22:05:40.620Z,45.43
2018-06-08T22:08:09.176Z,58.67
2018-06-08T22:10:37.818Z,39.20
2018-06-08T22:13:06.067Z,40.20
2018-06-08T22:15:34.755Z,42.70
2018-06-08T22:18:03.510Z,47.53
2018-06-08T22:20:32.231Z,39.40
2018-06-08T22:23:00.898Z,40.57
2018-06-08T22:25:29.673Z,37.50
2018-06-08T22:27:58.352Z,35.27
2018-06-08T22:30:27.059Z,37.43
2018-06-08T22:32:55.917Z,44.97
2018-06-08T22:35:24.486Z,38.10
2018-06-08T22:37:54.025Z,47.87
2018-06-08T22:40:22.640Z,30.13
2018-06-08T22:42:50.923Z,28.70
2018-06-08T22:45:19.271Z,26.00
2018-06-08T22:47:47.892Z,39.17
2018-06-08T22:50:16.548Z,21.37
2018-06-08T22:52:45.146Z,20.03
2018-06-08T22:55:13.834Z,18.70
2018-06-08T22:57:42.558Z,16.33
2018-06-08T23:00:12.330Z,13.53
2018-06-08T23:02:40.879Z,12.10
2018-06-08T23:05:09.570Z,13.33
2018-06-08T23:07:38.246Z,11.70
2018-06-08T23:10:06.961Z,19.30
2018-06-08T23:12:35.608Z,13.93
2018-06-08T23:15:04.585Z,12.23
2018-06-08T23:17:33.306Z,9.43
2018-06-08T23:20:01.882Z,10.97
2018-06-08T23:22:30.516Z,13.30
2018-06-08T23:24:59.224Z,8.67
2018-06-08T23:27:27.931Z,17.83
2018-06-08T23:29:56.614Z,9.87
2018-06-08T23:32:25.261Z,10.67
2018-06-08T23:34:53.941Z,12.27
2018-06-08T23:37:22.466Z,9.53
2018-06-08T23:39:51.136Z,24.47
2018-06-08T23:42:19.870Z,11.03
2018-06-08T23:44:48.481Z,14.00
2018-06-08T23:47:17.105Z,10.13
2018-06-08T23:49:45.741Z,10.60
2018-06-08T23:52:14.316Z,12.53
2018-06-08T23:54:44.018Z,11.17
2018-06-08T23:57:12.656Z,10.83
2018-06-08T23:59:41.427Z,16.33
